Time;durP1;ratioP1;P1;durP2;ratioP2;P2;SDS_P1;SDS_P2;PMS_P1;PMS_P2;Temp;Humidity;BMP_temperature;BMP_pressure;BME280_temperature;BME280_humidity;BME280_pressure;Samples;Min_cycle;Max_cycle;Signal;HPM_P1;HPM_P2
2021/06/09 00:01:43;;;;;;;2.65;2.45;;;18.90;85.90;;;;;;5131412;27;20023;-45
2021/06/09 00:04:09;;;;;;;2.97;2.05;;;18.90;85.90;;;;;;5131230;27;20019;-43
2021/06/09 00:06:35;;;;;;;3.15;2.00;;;18.90;86.20;;;;;;5131006;27;20042;-44
2021/06/09 00:09:01;;;;;;;2.55;2.33;;;18.90;86.90;;;;;;5131058;27;20043;-44
2021/06/09 00:11:26;;;;;;;2.80;2.50;;;18.80;86.70;;;;;;5130466;27;20077;-44
2021/06/09 00:13:52;;;;;;;2.40;2.25;;;18.80;86.20;;;;;;5130983;27;20254;-44
2021/06/09 00:16:20;;;;;;;3.35;2.30;;;18.80;85.90;;;;;;5131394;27;20130;-44
2021/06/09 00:18:46;;;;;;;2.25;2.05;;;18.80;88.50;;;;;;5131094;27;20027;-44
2021/06/09 00:21:12;;;;;;;2.00;1.90;;;18.80;87.90;;;;;;5123578;27;20381;-44
2021/06/09 00:23:38;;;;;;;3.83;2.25;;;18.80;88.00;;;;;;5122382;27;20409;-45
2021/06/09 00:26:05;;;;;;;3.38;2.15;;;18.70;89.20;;;;;;5129653;27;20498;-44
2021/06/09 00:28:32;;;;;;;2.72;2.30;;;18.70;90.10;;;;;;5131435;27;20035;-43
2021/06/09 00:30:58;;;;;;;2.30;2.10;;;18.60;90.10;;;;;;5130192;27;20058;-44
2021/06/09 00:33:25;;;;;;;2.78;2.22;;;18.70;89.50;;;;;;5130967;27;20023;-45
2021/06/09 00:35:55;;;;;;;3.85;2.15;;;18.60;89.40;;;;;;5131010;27;20103;-45
2021/06/09 00:38:20;;;;;;;5.10;2.40;;;18.60;89.20;;;;;;5130716;27;20023;-46
2021/06/09 00:40:46;;;;;;;2.22;2.03;;;18.60;88.30;;;;;;5130554;27;20028;-44
2021/06/09 00:43:13;;;;;;;4.13;2.20;;;18.60;87.60;;;;;;5130979;27;20042;-44
2021/06/09 00:45:42;;;;;;;2.72;2.50;;;18.60;87.90;;;;;;5129898;27;20076;-44
2021/06/09 00:48:08;;;;;;;4.63;2.55;;;18.60;88.60;;;;;;5129429;27;20050;-44
2021/06/09 00:50:34;;;;;;;2.88;2.53;;;18.50;88.70;;;;;;5130086;27;20091;-44
2021/06/09 00:55:45;;;;;;;2.58;2.33;;;18.50;88.40;;;;;;5130558;27;20034;-45
2021/06/09 00:58:12;;;;;;;2.45;2.13;;;18.50;89.40;;;;;;5130510;27;20102;-44
2021/06/09 01:00:39;;;;;;;6.28;2.45;;;18.50;90.10;;;;;;5129756;27;20016;-44
2021/06/09 01:03:05;;;;;;;3.67;2.50;;;18.50;90.60;;;;;;5130258;27;20019;-44
2021/06/09 01:05:31;;;;;;;3.33;2.25;;;18.40;90.20;;;;;;5130183;27;20027;-47
2021/06/09 01:08:00;;;;;;;3.95;2.40;;;18.40;90.50;;;;;;5129862;27;20399;-44
2021/06/09 01:10:25;;;;;;;5.63;2.30;;;18.40;89.60;;;;;;5129630;27;20023;-44
2021/06/09 01:12:52;;;;;;;5.97;2.85;;;18.40;89.90;;;;;;5130025;27;20399;-44
2021/06/09 01:15:18;;;;;;;3.97;2.45;;;18.40;89.90;;;;;;5129891;27;20055;-43
2021/06/09 01:17:44;;;;;;;2.38;2.17;;;18.30;91.30;;;;;;5130197;27;20481;-45
2021/06/09 01:20:11;;;;;;;4.80;2.60;;;18.30;91.30;;;;;;5128072;27;20035;-44
2021/06/09 01:22:36;;;;;;;2.55;2.08;;;18.30;90.90;;;;;;5117512;27;20496;-44
2021/06/09 01:25:07;;;;;;;2.85;2.60;;;18.30;90.80;;;;;;5126659;27;20101;-45
2021/06/09 01:27:32;;;;;;;;;;;18.30;90.20;;;;;;5130041;27;20403;-47
2021/06/09 01:30:00;;;;;;;2.63;2.42;;;18.20;90.40;;;;;;5128935;27;19911;-46
2021/06/09 01:32:26;;;;;;;2.53;2.30;;;18.30;91.00;;;;;;5127461;27;20030;-45
2021/06/09 01:34:52;;;;;;;3.88;2.65;;;18.30;91.20;;;;;;5129589;27;20465;-45
2021/06/09 01:37:19;;;;;;;6.78;2.33;;;18.30;91.70;;;;;;5129232;27;20031;-44
2021/06/09 01:39:45;;;;;;;4.75;2.80;;;18.30;91.10;;;;;;5127359;27;20020;-47
2021/06/09 01:42:11;;;;;;;4.20;2.58;;;18.30;91.10;;;;;;5129159;27;20427;-45
2021/06/09 01:44:40;;;;;;;8.23;3.10;;;18.30;91.10;;;;;;5128177;27;20487;-44
2021/06/09 01:47:06;;;;;;;5.03;2.38;;;18.30;91.10;;;;;;5129581;27;20088;-44
2021/06/09 01:49:32;;;;;;;3.60;2.45;;;18.30;91.10;;;;;;5128898;27;20472;-44
2021/06/09 01:51:58;;;;;;;3.30;2.55;;;18.20;90.70;;;;;;5123531;27;20025;-44
2021/06/09 01:54:24;;;;;;;3.42;2.78;;;18.20;91.00;;;;;;5120931;27;20031;-44
2021/06/09 01:56:51;;;;;;;2.10;1.98;;;18.20;91.20;;;;;;5129442;27;20094;-45
2021/06/09 01:59:19;;;;;;;3.45;2.55;;;18.20;91.60;;;;;;5128694;27;20190;-46
2021/06/09 02:01:49;;;;;;;3.60;2.13;;;18.20;91.20;;;;;;5129148;27;20023;-43
2021/06/09 02:04:16;;;;;;;3.58;2.65;;;18.10;90.80;;;;;;5129092;27;20035;-44
2021/06/09 02:06:42;;;;;;;2.53;2.33;;;18.20;90.80;;;;;;5128639;27;20121;-45
2021/06/09 02:09:13;;;;;;;2.58;2.38;;;18.10;91.00;;;;;;5128228;27;20020;-43
2021/06/09 02:11:43;;;;;;;4.00;2.15;;;18.10;91.20;;;;;;5128884;27;20027;-44
2021/06/09 02:14:10;;;;;;;3.15;2.45;;;18.10;91.70;;;;;;5127364;27;20052;-46
2021/06/09 02:16:37;;;;;;;4.97;2.53;;;18.10;92.90;;;;;;5128496;27;20588;-45
2021/06/09 02:19:04;;;;;;;2.53;2.13;;;18.10;93.90;;;;;;5128433;27;20106;-43
2021/06/09 02:21:31;;;;;;;4.10;2.50;;;18.00;92.90;;;;;;5122811;27;20016;-45
2021/06/09 02:23:56;;;;;;;2.30;2.08;;;18.00;92.70;;;;;;5120400;27;20372;-44
2021/06/09 02:26:24;;;;;;;2.33;1.90;;;18.00;92.50;;;;;;5128722;27;20019;-44
2021/06/09 02:28:49;;;;;;;2.20;2.00;;;18.00;91.70;;;;;;5128527;27;20011;-45
2021/06/09 02:31:16;;;;;;;3.15;2.45;;;18.00;91.70;;;;;;5127880;27;20222;-46
2021/06/09 02:33:43;;;;;;;3.60;2.50;;;18.00;91.60;;;;;;5128499;27;20031;-43
2021/06/09 02:36:09;;;;;;;3.50;2.25;;;18.00;92.10;;;;;;5128475;27;20034;-46
2021/06/09 02:38:36;;;;;;;3.70;2.55;;;18.00;92.80;;;;;;5126817;27;20484;-44
2021/06/09 02:41:02;;;;;;;2.60;2.40;;;17.90;93.80;;;;;;5127704;27;20095;-44
2021/06/09 02:43:31;;;;;;;4.20;2.70;;;17.90;94.40;;;;;;5127395;27;20113;-44
2021/06/09 02:46:12;;;;;;;3.83;2.08;;;17.80;94.90;;;;;;5128397;27;20015;-45
2021/06/09 02:48:41;;;;;;;2.35;2.15;;;17.70;95.00;;;;;;5128502;27;20031;-45
2021/06/09 02:51:08;;;;;;;2.83;2.30;;;17.70;94.00;;;;;;5123497;27;20040;-45
2021/06/09 02:53:58;;;;;;;2.38;1.92;;;17.70;93.40;;;;;;5119483;27;20023;-44
2021/06/09 02:56:49;;;;;;;1.98;1.70;;;17.70;93.00;;;;;;5128334;27;20384;-44
2021/06/09 02:59:20;;;;;;;3.10;2.13;;;17.70;92.30;;;;;;5128170;27;20031;-44
2021/06/09 03:02:15;;;;;;;2.22;1.77;;;17.60;91.60;;;;;;5128247;28;20030;-44
2021/06/09 03:04:54;;;;;;;1.88;1.70;;;17.60;90.40;;;;;;5128448;27;20365;-47
2021/06/09 03:07:47;;;;;;;1.85;1.63;;;17.60;90.40;;;;;;5127889;27;20152;-45
2021/06/09 03:10:15;;;;;;;3.25;1.52;;;17.60;90.00;;;;;;5127416;28;20038;-45
2021/06/09 03:13:08;;;;;;;3.63;1.80;;;17.50;89.70;;;;;;5126520;28;20146;-44
2021/06/09 03:15:45;;;;;;;2.55;1.67;;;17.60;90.20;;;;;;5128046;27;20016;-44
2021/06/09 03:18:23;;;;;;;2.10;1.90;;;17.50;90.00;;;;;;5102528;27;20107;-45
2021/06/09 03:20:57;;;;;;;1.45;1.35;;;17.50;90.00;;;;;;5096634;28;20238;-44
2021/06/09 03:23:44;;;;;;;3.30;1.60;;;17.50;90.00;;;;;;5100263;28;20023;-45
2021/06/09 03:26:28;;;;;;;2.20;2.00;;;17.50;89.80;;;;;;5096835;28;20469;-44
2021/06/09 03:29:07;;;;;;;1.70;1.40;;;17.50;88.70;;;;;;5097254;28;20027;-44
2021/06/09 03:31:42;;;;;;;4.28;2.20;;;17.50;89.40;;;;;;5096998;28;20032;-45
2021/06/09 03:34:14;;;;;;;1.90;1.67;;;17.50;89.80;;;;;;5095417;28;20020;-44
2021/06/09 03:37:01;;;;;;;1.48;1.38;;;17.50;90.20;;;;;;5094138;28;20171;-45
2021/06/09 03:39:29;;;;;;;1.85;1.48;;;17.50;90.60;;;;;;5069897;28;20137;-43
2021/06/09 03:42:00;;;;;;;1.98;1.48;;;17.50;90.60;;;;;;5071379;28;20809;-44
2021/06/09 03:44:34;;;;;;;2.65;1.70;;;17.50;91.40;;;;;;5091734;28;20036;-45
2021/06/09 03:47:01;;;;;;;1.83;1.40;;;17.40;91.40;;;;;;5103210;28;20032;-45
2021/06/09 03:49:28;;;;;;;2.70;1.60;;;17.30;91.50;;;;;;5093603;28;20401;-44
2021/06/09 03:51:54;;;;;;;2.20;1.50;;;17.30;92.00;;;;;;5095625;28;20104;-44
2021/06/09 03:54:21;;;;;;;3.72;1.88;;;17.40;92.50;;;;;;5105220;28;20024;-46
2021/06/09 03:56:48;;;;;;;4.38;1.52;;;17.40;92.20;;;;;;5099773;28;20024;-44
2021/06/09 03:59:15;;;;;;;3.30;1.40;;;17.40;92.10;;;;;;5099528;28;20584;-44
2021/06/09 04:01:42;;;;;;;2.10;1.42;;;17.40;92.20;;;;;;5099832;28;20024;-43
2021/06/09 04:04:14;;;;;;;1.67;1.20;;;17.40;92.50;;;;;;5093144;28;20123;-44
2021/06/09 04:06:43;;;;;;;4.13;1.33;;;17.50;91.60;;;;;;5099219;28;20020;-44
2021/06/09 04:09:17;;;;;;;1.67;1.30;;;17.50;91.70;;;;;;5094817;28;20027;-44
2021/06/09 04:11:43;;;;;;;3.90;1.38;;;17.50;91.40;;;;;;5090183;28;20074;-44
2021/06/09 04:14:10;;;;;;;1.30;1.20;;;17.50;91.10;;;;;;5088386;28;20500;-44
2021/06/09 04:16:38;;;;;;;1.80;1.35;;;17.50;90.90;;;;;;5089940;28;20027;-44
2021/06/09 04:19:05;;;;;;;1.33;1.20;;;17.50;91.00;;;;;;5089583;28;20474;-45
2021/06/09 04:21:31;;;;;;;1.60;1.42;;;17.50;90.90;;;;;;5099165;27;20054;-47
2021/06/09 04:23:57;;;;;;;1.38;1.17;;;17.50;90.70;;;;;;5120913;27;20015;-44
2021/06/09 04:26:24;;;;;;;2.70;1.40;;;17.50;91.00;;;;;;5129841;27;20027;-44
2021/06/09 04:28:53;;;;;;;1.73;1.27;;;17.50;91.10;;;;;;5130823;27;20495;-46
2021/06/09 04:31:19;;;;;;;2.13;1.27;;;17.50;91.10;;;;;;5130284;27;20030;-45
2021/06/09 04:33:46;;;;;;;3.97;1.25;;;17.50;91.10;;;;;;5130782;27;20536;-45
2021/06/09 04:36:13;;;;;;;1.80;1.23;;;17.50;91.40;;;;;;5129563;27;20031;-44
2021/06/09 04:38:39;;;;;;;2.03;1.38;;;17.60;91.70;;;;;;5104976;27;20091;-45
2021/06/09 04:41:05;;;;;;;2.05;1.65;;;17.60;91.60;;;;;;5097798;28;20023;-44
2021/06/09 04:43:31;;;;;;;5.72;1.60;;;17.60;91.90;;;;;;5098781;28;20034;-44
2021/06/09 04:45:56;;;;;;;1.90;1.58;;;17.60;91.90;;;;;;5099060;28;20017;-44
2021/06/09 04:48:22;;;;;;;1.20;1.10;;;17.70;92.00;;;;;;5098727;28;20028;-44
2021/06/09 04:50:49;;;;;;;3.17;1.40;;;17.80;92.40;;;;;;5070470;28;20525;-44
2021/06/09 04:53:16;;;;;;;2.55;1.50;;;17.80;92.50;;;;;;5114384;27;20035;-45
2021/06/09 04:55:43;;;;;;;1.70;1.60;;;17.80;92.70;;;;;;5123953;27;20549;-45
2021/06/09 04:58:11;;;;;;;8.05;2.13;;;17.80;92.60;;;;;;5113677;27;20067;-45
2021/06/09 05:00:36;;;;;;;4.25;1.55;;;17.80;92.70;;;;;;5108598;27;20118;-45
2021/06/09 05:03:02;;;;;;;4.13;1.50;;;17.80;92.60;;;;;;5101994;27;20476;-44
2021/06/09 05:05:28;;;;;;;5.15;1.60;;;17.80;93.10;;;;;;5120417;27;20023;-43
2021/06/09 05:07:53;;;;;;;4.25;1.60;;;17.90;93.20;;;;;;5128788;27;20027;-46
2021/06/09 05:10:20;;;;;;;7.15;1.98;;;17.80;93.30;;;;;;5114396;27;20410;-44
2021/06/09 05:13:00;;;;;;;1.70;1.60;;;17.80;92.90;;;;;;5106263;28;20031;-45
2021/06/09 05:15:29;;;;;;;3.60;1.80;;;17.80;92.70;;;;;;5109542;28;20028;-45
2021/06/09 05:17:55;;;;;;;4.55;1.85;;;17.90;92.60;;;;;;5107819;28;20039;-44
2021/06/09 05:20:31;;;;;;;5.00;1.52;;;17.80;93.90;;;;;;5107984;28;20393;-45
2021/06/09 05:23:26;;;;;;;1.95;1.75;;;17.80;94.20;;;;;;5112467;27;20038;-44
2021/06/09 05:25:53;;;;;;;3.55;1.95;;;17.80;94.40;;;;;;5124936;27;20421;-45
2021/06/09 05:28:21;;;;;;;3.08;2.10;;;17.80;94.30;;;;;;5128780;27;20027;-47
2021/06/09 05:30:49;;;;;;;3.40;1.80;;;17.80;94.20;;;;;;5128160;27;20062;-45
2021/06/09 05:33:16;;;;;;;1.98;1.77;;;17.80;94.00;;;;;;5088563;28;20493;-46
2021/06/09 05:35:42;;;;;;;2.60;1.75;;;17.90;93.50;;;;;;5086949;28;20308;-46
2021/06/09 05:38:08;;;;;;;4.45;2.20;;;17.90;92.90;;;;;;5087021;28;20402;-45
2021/06/09 05:40:34;;;;;;;2.28;1.60;;;18.00;92.40;;;;;;5088095;28;20401;-45
2021/06/09 05:43:00;;;;;;;4.32;1.83;;;18.00;92.20;;;;;;5088524;28;20024;-45
2021/06/09 05:45:28;;;;;;;2.83;1.95;;;18.10;91.90;;;;;;5088556;28;20055;-46
2021/06/09 05:47:54;;;;;;;4.25;1.70;;;18.10;92.10;;;;;;5104458;28;20557;-44
2021/06/09 05:50:23;;;;;;;1.98;1.63;;;18.10;92.00;;;;;;5107852;28;20119;-44
2021/06/09 05:52:51;;;;;;;5.10;1.80;;;18.10;92.60;;;;;;5110831;27;20023;-44
2021/06/09 05:55:22;;;;;;;5.53;2.10;;;18.20;91.80;;;;;;5116793;27;20027;-46
2021/06/09 05:57:49;;;;;;;1.63;1.50;;;18.20;92.10;;;;;;5108120;28;20023;-44
2021/06/09 06:00:17;;;;;;;4.10;2.05;;;18.20;91.30;;;;;;5093386;28;20028;-44
2021/06/09 06:02:43;;;;;;;3.95;2.67;;;18.20;91.10;;;;;;5087983;28;20024;-44
2021/06/09 06:05:10;;;;;;;3.22;1.88;;;18.30;91.70;;;;;;5086587;28;20194;-44
2021/06/09 06:07:35;;;;;;;5.97;2.05;;;18.30;92.10;;;;;;5087872;28;20032;-47
2021/06/09 06:10:03;;;;;;;3.35;1.73;;;18.40;91.70;;;;;;5091037;28;20114;-45
2021/06/09 06:12:30;;;;;;;3.17;1.90;;;18.40;91.80;;;;;;5105876;28;20027;-44
2021/06/09 06:14:56;;;;;;;3.92;1.90;;;18.40;91.20;;;;;;5098453;28;20086;-43
2021/06/09 06:17:22;;;;;;;7.03;1.92;;;18.50;91.80;;;;;;5095502;28;20077;-44
2021/06/09 06:19:50;;;;;;;2.70;1.50;;;18.60;91.80;;;;;;5091044;28;20655;-45
2021/06/09 06:22:17;;;;;;;4.07;1.73;;;18.60;91.80;;;;;;5089372;28;20199;-44
2021/06/09 06:24:46;;;;;;;3.40;1.80;;;18.70;91.90;;;;;;5090442;27;20028;-44
2021/06/09 06:27:12;;;;;;;3.83;1.80;;;18.90;92.00;;;;;;5097390;28;20019;-47
2021/06/09 06:29:38;;;;;;;7.85;2.00;;;19.00;92.00;;;;;;5094106;28;20095;-44
2021/06/09 06:32:09;;;;;;;4.57;1.85;;;19.20;91.60;;;;;;5092805;28;20044;-44
2021/06/09 06:34:36;;;;;;;;;;;19.30;90.20;;;;;;5097793;28;20107;-48
2021/06/09 06:37:03;;;;;;;3.30;1.70;;;19.60;90.40;;;;;;5097399;28;20231;-43
2021/06/09 06:39:29;;;;;;;4.30;1.98;;;19.80;90.90;;;;;;5096143;28;20016;-43
2021/06/09 06:41:55;;;;;;;4.47;2.13;;;20.10;90.50;;;;;;5100183;28;20049;-46
2021/06/09 06:44:21;;;;;;;3.55;1.92;;;20.20;89.40;;;;;;5086339;28;20024;-47
2021/06/09 06:46:49;;;;;;;4.68;2.10;;;20.40;89.40;;;;;;5087450;28;20035;-45
2021/06/09 06:49:19;;;;;;;3.05;1.90;;;20.70;87.70;;;;;;5087176;28;20020;-44
2021/06/09 06:51:46;;;;;;;3.30;1.98;;;21.00;86.50;;;;;;5087219;28;20020;-44
2021/06/09 06:54:12;;;;;;;1.80;1.50;;;21.10;85.90;;;;;;5111737;27;20489;-45
2021/06/09 06:56:39;;;;;;;4.78;1.40;;;21.20;83.10;;;;;;5126606;28;20480;-44
2021/06/09 06:59:05;;;;;;;2.67;1.70;;;21.30;84.40;;;;;;5127861;27;20669;-45
2021/06/09 07:01:36;;;;;;;6.68;2.22;;;21.40;84.70;;;;;;5128240;27;20046;-42
2021/06/09 07:04:03;;;;;;;2.50;1.75;;;21.50;83.80;;;;;;5111788;27;20044;-44
2021/06/09 07:06:30;;;;;;;3.20;1.45;;;21.50;83.70;;;;;;5085935;28;20071;-45
2021/06/09 07:08:56;;;;;;;4.80;1.73;;;21.60;84.00;;;;;;5097332;28;20036;-45
2021/06/09 07:11:22;;;;;;;3.97;1.92;;;21.50;82.20;;;;;;5107513;28;20437;-45
2021/06/09 07:13:50;;;;;;;2.60;1.50;;;21.60;82.30;;;;;;5107651;28;20111;-45
2021/06/09 07:16:17;;;;;;;3.58;1.67;;;21.60;81.00;;;;;;5107266;28;20262;-45
2021/06/09 07:18:47;;;;;;;5.18;1.77;;;21.50;81.60;;;;;;5106320;28;20015;-44
2021/06/09 07:21:15;;;;;;;3.05;1.40;;;21.50;78.20;;;;;;5107094;28;20435;-45
2021/06/09 07:23:42;;;;;;;2.17;1.65;;;21.50;77.80;;;;;;5116374;28;20054;-48
2021/06/09 07:26:08;;;;;;;3.45;1.60;;;21.70;76.30;;;;;;5109290;27;20026;-45
2021/06/09 07:28:34;;;;;;;1.48;1.23;;;21.90;78.10;;;;;;5105826;28;20546;-43
2021/06/09 07:31:00;;;;;;;2.10;1.50;;;22.10;75.10;;;;;;5110443;28;20119;-45
2021/06/09 07:33:26;;;;;;;3.05;1.45;;;22.10;73.60;;;;;;5101734;28;20110;-44
2021/06/09 07:35:55;;;;;;;2.90;1.58;;;22.10;73.30;;;;;;5099748;28;20046;-45
2021/06/09 07:38:31;;;;;;;1.58;1.48;;;22.00;72.50;;;;;;5109558;28;20016;-45
2021/06/09 07:41:00;;;;;;;1.65;1.52;;;21.70;73.60;;;;;;5110733;28;20089;-45
2021/06/09 07:43:34;;;;;;;1.50;1.30;;;21.70;74.10;;;;;;5103715;28;20266;-45
2021/06/09 07:46:00;;;;;;;3.45;1.30;;;21.90;73.90;;;;;;5090277;28;20083;-45
2021/06/09 07:48:29;;;;;;;2.30;1.50;;;22.00;74.70;;;;;;5089511;28;20427;-46
2021/06/09 07:50:59;;;;;;;3.90;1.50;;;22.50;74.90;;;;;;5087035;28;20489;-44
2021/06/09 07:53:26;;;;;;;3.95;1.63;;;22.80;73.00;;;;;;5108697;27;20574;-44
2021/06/09 07:55:52;;;;;;;2.67;1.60;;;22.80;73.40;;;;;;5125596;27;20045;-47
2021/06/09 07:58:21;;;;;;;3.85;1.38;;;23.10;73.30;;;;;;5130247;27;20466;-45
2021/06/09 08:00:47;;;;;;;5.50;1.73;;;23.30;73.40;;;;;;5127957;27;20030;-45
2021/06/09 08:03:13;;;;;;;5.97;1.52;;;23.40;69.90;;;;;;5129956;27;20061;-44
2021/06/09 08:05:41;;;;;;;4.38;2.10;;;23.60;69.90;;;;;;5130149;27;20027;-45
2021/06/09 08:08:11;;;;;;;4.82;1.60;;;23.90;68.90;;;;;;5127984;27;20029;-44
2021/06/09 08:10:36;;;;;;;4.10;1.85;;;24.50;67.20;;;;;;5102912;28;20035;-44
2021/06/09 08:13:02;;;;;;;5.20;1.45;;;24.50;63.70;;;;;;5089105;28;20044;-46
2021/06/09 08:15:29;;;;;;;1.42;1.30;;;25.10;65.30;;;;;;5088779;28;20372;-45
2021/06/09 08:17:55;;;;;;;2.25;1.45;;;26.00;62.40;;;;;;5089012;28;20035;-46
2021/06/09 08:20:22;;;;;;;6.32;1.55;;;27.00;58.90;;;;;;5088195;28;20024;-44
2021/06/09 08:22:49;;;;;;;3.47;1.40;;;27.50;57.60;;;;;;5102746;27;20473;-46
2021/06/09 08:25:19;;;;;;;5.45;1.40;;;28.30;56.60;;;;;;5109244;27;20504;-45
2021/06/09 08:27:47;;;;;;;2.00;1.40;;;29.20;53.90;;;;;;5088716;28;20035;-44
2021/06/09 08:30:13;;;;;;;6.25;1.40;;;29.90;52.90;;;;;;5088124;28;20450;-45
2021/06/09 08:32:39;;;;;;;2.30;1.42;;;30.70;52.60;;;;;;5088233;28;20067;-44
2021/06/09 08:35:06;;;;;;;7.07;1.50;;;31.70;51.60;;;;;;5088475;28;20070;-44
2021/06/09 08:37:32;;;;;;;1.88;1.33;;;33.00;47.80;;;;;;5118328;27;20034;-45
2021/06/09 08:39:57;;;;;;;6.13;1.70;;;33.00;45.00;;;;;;5110315;27;20310;-46
2021/06/09 08:42:25;;;;;;;4.63;1.30;;;33.10;47.80;;;;;;5109633;28;20364;-46
2021/06/09 08:44:51;;;;;;;1.58;1.48;;;32.70;47.40;;;;;;5105394;27;20051;-43
2021/06/09 08:47:17;;;;;;;4.45;1.50;;;33.10;45.60;;;;;;5088629;28;20036;-44
2021/06/09 08:49:43;;;;;;;6.45;1.80;;;33.50;45.40;;;;;;5099139;28;20118;-44
2021/06/09 08:52:11;;;;;;;3.45;1.48;;;33.60;46.00;;;;;;5107210;27;20145;-44
2021/06/09 08:54:41;;;;;;;2.33;1.80;;;32.90;46.40;;;;;;5121226;27;20506;-46
2021/06/09 08:57:08;;;;;;;8.82;1.85;;;32.40;44.70;;;;;;5100647;27;20048;-45
2021/06/09 08:59:34;;;;;;;6.68;1.70;;;31.60;47.90;;;;;;5095257;28;20030;-45
2021/06/09 09:02:00;;;;;;;2.05;1.58;;;32.30;46.80;;;;;;5100040;27;20012;-45
2021/06/09 09:04:27;;;;;;;2.58;1.40;;;33.00;45.70;;;;;;5117187;27;20023;-46
2021/06/09 09:06:53;;;;;;;3.72;1.63;;;32.40;46.90;;;;;;5102559;28;20024;-46
2021/06/09 09:09:18;;;;;;;2.38;1.25;;;32.20;47.20;;;;;;5096500;28;20191;-44
2021/06/09 09:11:44;;;;;;;2.72;1.30;;;33.20;45.50;;;;;;5096849;28;20119;-47
2021/06/09 09:14:09;;;;;;;2.63;1.40;;;33.60;46.00;;;;;;5095511;28;20145;-45
2021/06/09 09:16:35;;;;;;;5.25;1.30;;;34.50;42.60;;;;;;5098488;28;20077;-46
2021/06/09 09:19:02;;;;;;;2.20;1.20;;;34.50;44.00;;;;;;5096802;28;20095;-47
2021/06/09 09:21:41;;;;;;;1.92;1.35;;;34.60;42.50;;;;;;5097837;28;20016;-44
2021/06/09 09:24:09;;;;;;;2.13;1.50;;;34.30;43.10;;;;;;5103089;27;20027;-48
2021/06/09 09:26:36;;;;;;;3.33;1.55;;;32.90;43.20;;;;;;5098285;28;20024;-44
2021/06/09 09:29:15;;;;;;;2.67;1.40;;;33.00;43.70;;;;;;5098144;28;20024;-45
2021/06/09 09:31:54;;;;;;;3.40;1.60;;;32.10;43.30;;;;;;5094670;28;20030;-45
2021/06/09 09:34:33;;;;;;;2.10;1.60;;;30.10;47.10;;;;;;5095554;28;20513;-44
2021/06/09 09:37:09;;;;;;;3.55;1.60;;;30.50;48.10;;;;;;5098279;28;20649;-44
2021/06/09 09:39:38;;;;;;;2.00;1.50;;;32.00;45.80;;;;;;5096721;28;20453;-44
2021/06/09 09:42:32;;;;;;;2.17;1.98;;;32.20;44.40;;;;;;5095012;28;20031;-44
2021/06/09 09:45:24;;;;;;;2.17;1.73;;;31.40;46.90;;;;;;5095550;28;20513;-44
2021/06/09 09:48:15;;;;;;;3.22;1.70;;;31.30;46.50;;;;;;5098267;27;20095;-44
2021/06/09 09:50:45;;;;;;;3.05;1.60;;;31.00;47.70;;;;;;5097626;28;20169;-44
2021/06/09 09:53:21;;;;;;;5.60;2.25;;;31.30;47.60;;;;;;5098321;27;20056;-45
2021/06/09 09:56:12;;;;;;;4.72;2.05;;;31.40;45.10;;;;;;5098044;27;20024;-45
2021/06/09 09:59:02;;;;;;;2.10;1.98;;;31.90;47.50;;;;;;5097589;28;20424;-46
2021/06/09 10:01:30;;;;;;;1.63;1.50;;;32.90;48.10;;;;;;5096105;28;20080;-46
2021/06/09 10:03:58;;;;;;;2.83;1.27;;;34.90;44.60;;;;;;5097306;28;20417;-45
2021/06/09 10:06:33;;;;;;;1.95;1.75;;;35.80;43.00;;;;;;5094479;28;21078;-44
2021/06/09 10:09:10;;;;;;;3.25;1.88;;;36.40;43.00;;;;;;5096975;28;20258;-45
2021/06/09 10:11:42;;;;;;;3.10;2.03;;;37.40;39.70;;;;;;5095206;28;20123;-46
2021/06/09 10:14:20;;;;;;;4.35;1.95;;;36.90;40.00;;;;;;5097959;28;20032;-44
2021/06/09 10:16:47;;;;;;;2.22;1.35;;;37.20;39.90;;;;;;5097902;28;20015;-45
2021/06/09 10:19:15;;;;;;;2.85;1.52;;;37.00;42.70;;;;;;5095945;28;20016;-45
2021/06/09 10:21:57;;;;;;;1.92;1.75;;;37.10;38.90;;;;;;5096025;28;20069;-44
2021/06/09 10:24:24;;;;;;;3.03;1.90;;;36.10;41.20;;;;;;5099815;27;20023;-45
2021/06/09 10:26:57;;;;;;;5.82;1.75;;;34.90;42.30;;;;;;5095929;28;20051;-45
2021/06/09 10:29:25;;;;;;;3.00;2.45;;;36.50;41.60;;;;;;5095065;28;20103;-46
2021/06/09 10:31:55;;;;;;;4.60;2.35;;;35.40;39.50;;;;;;5089529;28;20028;-46
2021/06/09 10:34:32;;;;;;;3.08;2.40;;;33.90;42.40;;;;;;5096364;28;20050;-48
2021/06/09 10:36:59;;;;;;;2.50;2.30;;;33.40;44.10;;;;;;5096726;28;20089;-45
2021/06/09 10:39:30;;;;;;;2.40;1.95;;;33.70;43.90;;;;;;5094940;28;20081;-44
2021/06/09 10:41:58;;;;;;;2.22;2.03;;;34.20;43.60;;;;;;5105744;28;20019;-45
2021/06/09 10:44:25;;;;;;;5.07;2.60;;;35.50;43.10;;;;;;5106133;28;20067;-44
2021/06/09 10:46:55;;;;;;;2.28;1.95;;;36.30;42.30;;;;;;5107664;28;20023;-45
2021/06/09 10:49:22;;;;;;;4.50;2.20;;;36.30;43.10;;;;;;5105495;28;20119;-48
2021/06/09 10:51:51;;;;;;;2.25;1.77;;;36.80;41.50;;;;;;5106386;28;20032;-47
2021/06/09 10:54:19;;;;;;;3.25;2.40;;;37.10;42.30;;;;;;5112770;27;20091;-46
2021/06/09 10:56:47;;;;;;;3.17;2.45;;;36.10;40.10;;;;;;5127104;27;20027;-46
2021/06/09 10:59:18;;;;;;;3.92;2.40;;;36.80;40.20;;;;;;5127657;27;20088;-46
2021/06/09 11:01:45;;;;;;;5.72;4.13;;;37.40;39.50;;;;;;5128086;27;20026;-46
2021/06/09 11:04:11;;;;;;;5.53;3.97;;;37.20;41.20;;;;;;5124313;27;20031;-47
2021/06/09 11:06:40;;;;;;;2.50;2.30;;;36.60;42.10;;;;;;5091632;28;20107;-46
2021/06/09 11:09:26;;;;;;;3.78;2.58;;;35.60;43.50;;;;;;5092019;28;20035;-46
2021/06/09 11:12:13;;;;;;;5.45;2.65;;;34.90;43.30;;;;;;5103180;28;20040;-46
2021/06/09 11:14:52;;;;;;;4.10;2.50;;;33.70;42.70;;;;;;5100775;28;20077;-45
2021/06/09 11:17:35;;;;;;;5.72;2.60;;;33.20;45.50;;;;;;5098616;28;20024;-46
2021/06/09 11:20:25;;;;;;;3.45;2.60;;;31.20;46.60;;;;;;5098805;28;20021;-47
2021/06/09 11:22:56;;;;;;;3.67;2.78;;;30.70;49.30;;;;;;5096267;27;20149;-48
2021/06/09 11:25:25;;;;;;;9.70;3.30;;;30.60;51.10;;;;;;5103424;27;20031;-45
2021/06/09 11:27:59;;;;;;;6.30;3.33;;;30.60;49.80;;;;;;5111448;28;20275;-47
2021/06/09 11:30:24;;;;;;;4.72;3.08;;;30.50;47.90;;;;;;5109592;28;20020;-45
2021/06/09 11:32:55;;;;;;;4.32;3.05;;;30.40;50.10;;;;;;5111747;28;20031;-48
2021/06/09 11:35:42;;;;;;;3.58;3.17;;;30.30;51.70;;;;;;5109512;28;20103;-44
2021/06/09 11:38:16;;;;;;;3.67;3.15;;;30.10;50.50;;;;;;5107836;28;20064;-46
2021/06/09 11:40:50;;;;;;;6.07;3.17;;;30.00;50.00;;;;;;5110205;28;20028;-45
2021/06/09 11:43:27;;;;;;;4.63;3.00;;;29.30;50.50;;;;;;5111127;28;20024;-45
2021/06/09 11:46:05;;;;;;;5.20;3.25;;;29.40;51.40;;;;;;5106076;28;20050;-45
2021/06/09 11:48:33;;;;;;;5.40;3.60;;;30.70;50.80;;;;;;5110137;28;20404;-44
2021/06/09 11:51:17;;;;;;;4.95;3.03;;;31.60;46.50;;;;;;5110289;28;20031;-45
2021/06/09 11:53:48;;;;;;;5.22;3.20;;;32.60;46.00;;;;;;5107337;27;20385;-45
2021/06/09 11:56:23;;;;;;;5.35;3.05;;;32.30;47.30;;;;;;5102884;27;20547;-44
2021/06/09 11:58:56;;;;;;;3.20;2.88;;;32.00;47.60;;;;;;5098611;28;20477;-44
2021/06/09 12:01:23;;;;;;;4.43;2.90;;;31.30;49.70;;;;;;5098687;28;20122;-44
2021/06/09 12:04:23;;;;;;;3.60;3.10;;;30.60;48.00;;;;;;5098535;28;20023;-43
2021/06/09 12:06:50;;;;;;;3.80;3.40;;;30.10;51.60;;;;;;5056076;28;20451;-44
2021/06/09 12:09:18;;;;;;;3.40;3.10;;;30.50;51.00;;;;;;5097533;28;20024;-45
2021/06/09 12:11:46;;;;;;;6.47;3.08;;;30.80;48.20;;;;;;5099129;28;20488;-45
2021/06/09 12:14:16;;;;;;;4.85;3.17;;;31.00;50.90;;;;;;5100491;28;20432;-44
2021/06/09 12:16:41;;;;;;;7.88;3.13;;;31.00;50.60;;;;;;5094626;28;20027;-44
2021/06/09 12:19:20;;;;;;;4.70;3.33;;;31.10;49.50;;;;;;5097171;28;20031;-44
2021/06/09 12:21:46;;;;;;;4.97;3.95;;;31.30;49.60;;;;;;5090519;28;20042;-44
2021/06/09 12:24:11;;;;;;;5.15;3.20;;;30.60;48.70;;;;;;5119164;27;20493;-45
2021/06/09 12:26:37;;;;;;;4.57;3.47;;;30.90;50.00;;;;;;5128490;27;20243;-46
2021/06/09 12:29:04;;;;;;;4.47;3.75;;;31.40;50.50;;;;;;5110078;28;20073;-47
2021/06/09 12:31:30;;;;;;;5.97;3.65;;;31.20;50.60;;;;;;5110533;28;20020;-46
2021/06/09 12:33:55;;;;;;;4.50;3.70;;;30.80;49.30;;;;;;5110169;28;20032;-44
2021/06/09 12:36:21;;;;;;;7.30;3.78;;;31.10;51.00;;;;;;5110582;28;20028;-44
2021/06/09 12:38:46;;;;;;;3.47;3.17;;;31.10;52.10;;;;;;5105707;28;20031;-45
2021/06/09 12:41:12;;;;;;;5.63;3.55;;;31.00;53.60;;;;;;5109347;28;20040;-44
2021/06/09 12:43:39;;;;;;;3.85;3.03;;;30.90;53.50;;;;;;5110232;28;20500;-44
2021/06/09 12:46:05;;;;;;;4.88;3.95;;;30.90;53.40;;;;;;5108814;28;20369;-45
2021/06/09 12:48:35;;;;;;;3.83;3.47;;;30.50;49.60;;;;;;5095659;28;20036;-44
2021/06/09 12:51:02;;;;;;;6.22;3.83;;;30.80;50.80;;;;;;5088901;28;20431;-45
2021/06/09 12:53:29;;;;;;;7.40;3.53;;;31.20;51.70;;;;;;5110073;27;20126;-46
2021/06/09 12:55:58;;;;;;;4.10;3.70;;;31.30;49.60;;;;;;5125193;27;20023;-44
2021/06/09 12:58:29;;;;;;;3.72;3.38;;;30.80;49.90;;;;;;5119894;27;20042;-44
2021/06/09 13:01:06;;;;;;;3.88;3.47;;;30.40;51.40;;;;;;5109002;28;20485;-44
2021/06/09 13:03:43;;;;;;;6.15;3.55;;;30.50;51.10;;;;;;5108080;28;20035;-44